Terminal Aerodrome Forecast
Issued by NWS

Home | Current Version | Previous Version | Text Only | Print | Product List | Glossary On
Versions: 1 2 3 4 5 6 7 8 9 10 11 12 13 14 15 16 17 18 19 20 21 22 23 24 25 26 27 28 29 30
000
FTUS41 KBOX 031722
TAFHYA
TAF
KHYA 031722Z 0318/0418 04007KT 5SM -SHRA BR OVC008
     FM032100 05007KT 5SM BR VCSH OVC008
     FM040000 06005KT 3SM BR OVC008
     FM041200 04008KT P6SM OVC008
     FM041500 06009KT P6SM VCSH OVC008=

USA.gov is the U.S. government's official web portal to all federal, state and local government web resources and services.